createdAt,value
2019-03-09T00:00:56.480Z,66.40
2019-03-09T00:03:25.221Z,66.40
2019-03-09T00:05:53.534Z,66.30
2019-03-09T00:08:22.096Z,66.40
2019-03-09T00:10:50.780Z,66.30
2019-03-09T00:13:19.272Z,66.50
2019-03-09T00:15:47.748Z,66.50
2019-03-09T00:18:16.263Z,66.50
2019-03-09T00:20:44.724Z,66.60
2019-03-09T00:23:20.753Z,66.30
2019-03-09T00:25:50.769Z,66.30
2019-03-09T00:28:20.766Z,66.30
2019-03-09T00:30:56.684Z,66.30
2019-03-09T00:33:24.985Z,66.30
2019-03-09T00:35:53.330Z,66.20
2019-03-09T00:38:21.641Z,66.00
2019-03-09T00:40:49.965Z,65.90
2019-03-09T00:43:18.286Z,66.00
2019-03-09T00:45:46.605Z,66.10
2019-03-09T00:48:15.290Z,65.80
2019-03-09T00:50:43.702Z,65.80
2019-03-09T00:53:12.069Z,65.80
2019-03-09T00:55:40.755Z,65.80
2019-03-09T00:58:09.074Z,65.90
2019-03-09T01:00:37.588Z,66.00
2019-03-09T01:03:06.145Z,65.70
2019-03-09T01:05:34.479Z,65.50
2019-03-09T01:08:02.959Z,65.70
2019-03-09T01:10:31.541Z,65.80
2019-03-09T01:12:59.882Z,66.00
2019-03-09T01:15:28.270Z,65.80
2019-03-09T01:17:56.780Z,65.90
2019-03-09T01:20:25.246Z,66.00
2019-03-09T01:22:53.584Z,66.30
2019-03-09T01:25:21.896Z,66.40
2019-03-09T01:27:50.249Z,66.30
2019-03-09T01:30:18.554Z,66.40
2019-03-09T01:32:47.026Z,66.30
2019-03-09T01:35:15.364Z,66.40
2019-03-09T01:37:43.694Z,66.60
2019-03-09T01:40:13.852Z,66.70
2019-03-09T01:42:42.189Z,66.80
2019-03-09T01:45:15.322Z,66.90
2019-03-09T01:47:43.997Z,67.10
2019-03-09T01:50:12.486Z,67.20
2019-03-09T01:52:41.043Z,67.30
2019-03-09T01:55:11.752Z,67.40
2019-03-09T01:57:40.234Z,67.50
2019-03-09T02:00:16.290Z,67.70
2019-03-09T02:02:44.833Z,68.00
2019-03-09T02:05:13.542Z,68.90
2019-03-09T02:07:41.855Z,68.10
2019-03-09T02:10:13.967Z,68.20
2019-03-09T02:12:42.324Z,68.30
2019-03-09T02:15:16.908Z,68.30
2019-03-09T02:17:45.393Z,68.50
2019-03-09T02:20:19.911Z,68.50
2019-03-09T02:22:48.387Z,68.50
2019-03-09T02:25:16.946Z,68.30
2019-03-09T02:27:45.348Z,68.30
2019-03-09T02:30:17.655Z,68.10
2019-03-09T02:32:46.200Z,68.20
2019-03-09T02:35:15.573Z,67.90
2019-03-09T02:37:44.508Z,67.70
2019-03-09T02:40:18.368Z,67.60
2019-03-09T02:42:46.739Z,67.60
2019-03-09T02:45:22.842Z,67.40
2019-03-09T02:47:51.253Z,67.20
2019-03-09T02:50:19.792Z,67.10
2019-03-09T02:52:48.290Z,67.30
2019-03-09T02:55:16.829Z,67.70
2019-03-09T02:57:45.156Z,68.00
2019-03-09T03:00:21.049Z,67.90
2019-03-09T03:02:53.606Z,67.80
2019-03-09T03:05:22.189Z,68.00
2019-03-09T03:07:50.590Z,67.90
2019-03-09T03:10:18.897Z,68.00
2019-03-09T03:12:47.469Z,67.90
2019-03-09T03:15:35.754Z,67.70
2019-03-09T03:18:04.615Z,67.40
2019-03-09T03:20:33.552Z,67.60
2019-03-09T03:23:01.896Z,67.60
2019-03-09T03:25:30.415Z,67.80
2019-03-09T03:27:59.046Z,68.40
2019-03-09T03:30:27.580Z,69.10
2019-03-09T03:32:57.601Z,69.60
2019-03-09T03:35:26.483Z,70.10
2019-03-09T03:37:55.049Z,70.80
2019-03-09T03:40:23.522Z,70.80
2019-03-09T03:42:52.018Z,71.10
2019-03-09T03:45:20.560Z,71.20
2019-03-09T03:47:49.353Z,71.60
2019-03-09T03:50:17.761Z,71.90
2019-03-09T03:52:46.244Z,72.30
2019-03-09T03:55:14.794Z,72.60
2019-03-09T03:57:43.139Z,72.70
2019-03-09T04:00:13.908Z,72.80
2019-03-09T04:02:42.289Z,73.30
2019-03-09T04:05:10.681Z,72.90
2019-03-09T04:07:38.987Z,73.00
2019-03-09T04:10:09.654Z,73.80
2019-03-09T04:12:39.112Z,73.70
2019-03-09T04:15:07.587Z,73.90
2019-03-09T04:17:36.286Z,73.60
2019-03-09T04:20:06.244Z,73.70
2019-03-09T04:22:34.749Z,74.00
2019-03-09T04:25:03.097Z,74.20
2019-03-09T04:27:31.492Z,74.30
2019-03-09T04:29:59.972Z,74.30
2019-03-09T04:32:28.476Z,74.80
2019-03-09T04:34:56.863Z,75.20
2019-03-09T04:37:25.188Z,75.70
2019-03-09T04:39:53.666Z,75.50
2019-03-09T04:42:22.223Z,75.80
2019-03-09T04:44:52.412Z,76.30
2019-03-09T04:47:20.732Z,76.00
2019-03-09T04:49:49.381Z,75.30
2019-03-09T04:52:17.873Z,75.30
2019-03-09T04:54:46.248Z,74.80
2019-03-09T04:57:14.738Z,74.70
2019-03-09T04:59:43.230Z,75.40
2019-03-09T05:02:11.733Z,74.90
2019-03-09T05:04:42.548Z,75.00
2019-03-09T05:07:12.176Z,75.50
2019-03-09T05:09:58.673Z,75.70
2019-03-09T05:12:26.978Z,75.70
2019-03-09T05:14:55.534Z,75.80
2019-03-09T05:17:23.845Z,76.10
2019-03-09T05:19:52.238Z,76.10
2019-03-09T05:22:20.888Z,76.10
2019-03-09T05:24:49.224Z,75.80
2019-03-09T05:27:17.643Z,75.60
2019-03-09T05:29:46.237Z,75.40
2019-03-09T05:32:14.792Z,75.80
2019-03-09T05:34:43.158Z,75.70
2019-03-09T05:37:11.537Z,76.10
2019-03-09T05:39:39.867Z,76.20
2019-03-09T05:42:08.363Z,75.90
2019-03-09T05:44:36.934Z,76.00
2019-03-09T05:47:05.230Z,75.80
2019-03-09T05:49:33.618Z,75.70
2019-03-09T05:52:23.765Z,75.40
2019-03-09T05:54:52.137Z,75.20
2019-03-09T05:57:20.480Z,75.20
2019-03-09T05:59:49.100Z,75.00
2019-03-09T06:02:17.597Z,74.50
2019-03-09T06:04:46.228Z,74.10
2019-03-09T06:07:14.797Z,73.90
2019-03-09T06:09:43.265Z,73.20
2019-03-09T06:12:11.662Z,72.60
2019-03-09T06:14:39.992Z,72.20
2019-03-09T06:17:08.754Z,71.90
2019-03-09T06:19:37.141Z,71.00
2019-03-09T06:22:05.486Z,71.30
2019-03-09T06:24:33.792Z,71.60
2019-03-09T06:27:02.288Z,71.00
2019-03-09T06:29:30.846Z,71.20
2019-03-09T06:32:32.972Z,69.80
2019-03-09T06:35:01.326Z,69.30
2019-03-09T06:37:31.391Z,68.90
2019-03-09T06:39:59.898Z,68.50
2019-03-09T06:42:31.468Z,68.10
2019-03-09T06:44:59.797Z,67.50
2019-03-09T06:47:28.110Z,67.80
2019-03-09T06:49:58.102Z,67.30
2019-03-09T06:52:26.580Z,67.20
2019-03-09T06:54:55.248Z,67.20
2019-03-09T06:57:23.829Z,66.70
2019-03-09T06:59:52.271Z,66.30
2019-03-09T07:02:20.585Z,66.40
2019-03-09T07:04:49.103Z,65.80
2019-03-09T07:07:17.480Z,65.90
2019-03-09T07:09:45.864Z,65.70
2019-03-09T07:12:14.361Z,65.50
2019-03-09T07:14:54.855Z,65.50
2019-03-09T07:17:23.195Z,65.40
2019-03-09T07:19:51.833Z,65.20
2019-03-09T07:22:20.334Z,65.70
2019-03-09T07:24:48.716Z,66.20
2019-03-09T07:27:17.045Z,66.80
2019-03-09T07:29:45.510Z,67.40
2019-03-09T07:32:13.899Z,69.30
2019-03-09T07:34:42.227Z,71.10
2019-03-09T07:37:10.562Z,72.50
2019-03-09T07:39:39.619Z,75.30
2019-03-09T07:42:08.120Z,77.40
2019-03-09T07:44:36.593Z,79.00
2019-03-09T07:47:05.255Z,80.30
2019-03-09T07:49:33.557Z,80.60
2019-03-09T07:52:01.888Z,81.60
2019-03-09T07:54:30.401Z,81.80
2019-03-09T07:56:58.877Z,81.20
2019-03-09T07:59:27.377Z,81.80
2019-03-09T08:01:56.170Z,80.50
2019-03-09T08:04:24.853Z,80.00
2019-03-09T08:06:53.161Z,80.10
2019-03-09T08:09:21.492Z,81.30
2019-03-09T08:11:50.037Z,80.70
2019-03-09T08:14:18.531Z,81.90
2019-03-09T08:16:47.883Z,80.60
2019-03-09T08:19:16.205Z,79.50
2019-03-09T08:21:44.694Z,80.00
2019-03-09T08:24:13.105Z,78.90
2019-03-09T08:26:41.586Z,78.40
2019-03-09T08:29:09.914Z,78.00
2019-03-09T08:31:38.237Z,76.90
2019-03-09T08:34:06.844Z,76.50
2019-03-09T08:36:35.344Z,77.70
2019-03-09T08:39:04.713Z,76.30
2019-03-09T08:41:33.458Z,75.50
2019-03-09T08:44:01.869Z,75.30
2019-03-09T08:46:30.203Z,74.50
2019-03-09T08:49:00.044Z,73.00
2019-03-09T08:51:28.697Z,72.50
2019-03-09T08:53:57.298Z,71.90
2019-03-09T08:56:25.697Z,71.30
2019-03-09T08:58:54.086Z,71.20
2019-03-09T09:01:22.400Z,71.00
2019-03-09T09:03:50.907Z,71.00
2019-03-09T09:06:19.310Z,70.20
2019-03-09T09:08:47.816Z,70.00
2019-03-09T09:11:16.579Z,69.90
2019-03-09T09:13:44.911Z,69.60
2019-03-09T09:16:13.314Z,70.00
2019-03-09T09:18:41.727Z,70.10
2019-03-09T09:21:10.220Z,69.40
2019-03-09T09:23:38.639Z,69.10
2019-03-09T09:26:07.081Z,69.00
2019-03-09T09:28:37.311Z,68.70
2019-03-09T09:31:05.910Z,68.30
2019-03-09T09:33:34.543Z,68.60
2019-03-09T09:36:06.387Z,68.00
2019-03-09T09:38:34.927Z,67.80
2019-03-09T09:41:03.355Z,66.90
2019-03-09T09:43:31.862Z,67.40
2019-03-09T09:46:00.211Z,66.90
2019-03-09T09:48:28.704Z,67.60
2019-03-09T09:50:57.241Z,66.90
2019-03-09T09:53:25.725Z,66.40
2019-03-09T09:55:54.320Z,65.10
2019-03-09T09:58:22.645Z,65.40
2019-03-09T10:00:51.132Z,65.80
2019-03-09T10:03:19.692Z,65.30
2019-03-09T10:05:48.268Z,64.80
2019-03-09T10:08:16.817Z,64.70
2019-03-09T10:10:49.094Z,64.80
2019-03-09T10:13:17.604Z,64.80
2019-03-09T10:15:46.102Z,63.80
2019-03-09T10:18:14.416Z,63.60
2019-03-09T10:20:44.874Z,63.00
2019-03-09T10:23:13.004Z,63.50
2019-03-09T10:25:41.577Z,63.20
2019-03-09T10:28:10.266Z,63.80
2019-03-09T10:30:38.821Z,62.90
2019-03-09T10:33:07.305Z,62.70
2019-03-09T10:35:35.923Z,62.30
2019-03-09T10:38:04.434Z,62.70
2019-03-09T10:40:32.860Z,63.20
2019-03-09T10:43:01.365Z,62.80
2019-03-09T10:45:30.030Z,63.60
2019-03-09T10:47:58.495Z,63.30
2019-03-09T10:50:27.034Z,63.60
2019-03-09T10:52:55.360Z,63.80
2019-03-09T10:55:32.032Z,63.90
2019-03-09T10:58:01.957Z,62.40
2019-03-09T11:00:33.251Z,61.30
2019-03-09T11:03:01.858Z,61.30
2019-03-09T11:05:30.171Z,61.20
2019-03-09T11:07:58.911Z,60.90
2019-03-09T11:10:27.569Z,61.20
2019-03-09T11:12:56.212Z,62.10
2019-03-09T11:15:24.822Z,62.00
2019-03-09T11:17:53.309Z,61.50
2019-03-09T11:20:21.701Z,61.40
2019-03-09T11:22:50.320Z,60.90
2019-03-09T11:25:18.640Z,61.20
2019-03-09T11:27:47.172Z,60.60
2019-03-09T11:30:26.144Z,60.50
2019-03-09T11:32:54.521Z,60.90
2019-03-09T11:35:22.882Z,60.90
2019-03-09T11:37:51.386Z,60.40
2019-03-09T11:40:19.890Z,60.50
2019-03-09T11:42:48.439Z,60.00
2019-03-09T11:45:17.983Z,59.80
2019-03-09T11:47:46.530Z,59.80
2019-03-09T11:50:16.109Z,59.60
2019-03-09T11:52:44.757Z,59.60
2019-03-09T11:55:14.513Z,59.40
2019-03-09T11:57:43.082Z,58.90
2019-03-09T12:00:21.277Z,58.40
2019-03-09T12:02:49.700Z,58.30
2019-03-09T12:05:18.185Z,58.50
2019-03-09T12:07:46.586Z,58.80
2019-03-09T12:10:14.919Z,58.70
2019-03-09T12:12:43.423Z,58.90
2019-03-09T12:15:18.203Z,59.00
2019-03-09T12:17:46.626Z,59.20
2019-03-09T12:20:17.062Z,59.30
2019-03-09T12:22:45.403Z,59.30
2019-03-09T12:25:15.269Z,59.10
2019-03-09T12:27:43.848Z,59.30
2019-03-09T12:30:17.006Z,59.10
2019-03-09T12:32:45.507Z,59.00
2019-03-09T12:35:14.002Z,58.70
2019-03-09T12:37:42.512Z,58.00
2019-03-09T12:40:21.733Z,57.20
2019-03-09T12:42:50.300Z,56.90
2019-03-09T12:45:18.632Z,56.90
2019-03-09T12:47:46.960Z,56.30
2019-03-09T12:50:23.519Z,56.00
2019-03-09T12:52:52.010Z,55.70
2019-03-09T12:55:20.504Z,55.40
2019-03-09T12:57:48.893Z,55.70
2019-03-09T13:00:19.109Z,55.80
2019-03-09T13:02:47.500Z,54.50
2019-03-09T13:05:17.628Z,54.10
2019-03-09T13:07:46.351Z,54.30
2019-03-09T13:10:15.531Z,53.50
2019-03-09T13:12:43.839Z,53.20
2019-03-09T13:15:12.166Z,52.80
2019-03-09T13:17:41.059Z,52.60
2019-03-09T13:20:11.578Z,51.70
2019-03-09T13:22:39.899Z,51.90
2019-03-09T13:25:08.595Z,52.50
2019-03-09T13:27:37.048Z,51.90
2019-03-09T13:30:08.631Z,52.20
2019-03-09T13:32:36.980Z,53.10
2019-03-09T13:35:05.374Z,53.90
2019-03-09T13:37:33.713Z,55.10
2019-03-09T13:40:02.168Z,55.10
2019-03-09T13:42:30.569Z,55.40
2019-03-09T13:44:59.137Z,55.70
2019-03-09T13:47:29.114Z,56.10
2019-03-09T13:49:57.425Z,56.10
2019-03-09T13:52:25.770Z,56.00
2019-03-09T13:54:54.256Z,56.30
2019-03-09T13:57:22.799Z,56.50
2019-03-09T13:59:51.163Z,57.10
2019-03-09T14:02:19.584Z,57.40
2019-03-09T14:04:53.482Z,57.60
2019-03-09T14:07:21.837Z,58.00
2019-03-09T14:09:50.558Z,57.80
2019-03-09T14:12:18.969Z,58.40
2019-03-09T14:14:47.292Z,58.50
2019-03-09T14:17:15.610Z,58.60
2019-03-09T14:19:43.934Z,59.00
2019-03-09T14:22:12.317Z,58.90
2019-03-09T14:24:40.661Z,59.40
2019-03-09T14:27:09.189Z,59.90
2019-03-09T14:29:37.569Z,59.90
2019-03-09T14:32:06.064Z,60.20
2019-03-09T14:34:34.566Z,60.70
2019-03-09T14:37:03.045Z,60.80
2019-03-09T14:39:31.555Z,61.00
2019-03-09T14:41:59.859Z,61.20
2019-03-09T14:44:28.198Z,61.50
2019-03-09T14:46:56.752Z,61.80
2019-03-09T14:49:25.092Z,62.00
2019-03-09T14:51:53.742Z,62.60
2019-03-09T14:54:22.409Z,62.70
2019-03-09T14:56:50.900Z,62.80
2019-03-09T14:59:19.468Z,62.80
2019-03-09T15:01:47.849Z,63.10
2019-03-09T15:04:16.526Z,63.30
2019-03-09T15:06:44.911Z,63.60
2019-03-09T15:09:13.291Z,63.60
2019-03-09T15:11:41.731Z,63.60
2019-03-09T15:14:10.290Z,63.80
2019-03-09T15:16:38.655Z,63.80
2019-03-09T15:19:07.266Z,63.80
2019-03-09T15:21:35.636Z,63.70
2019-03-09T15:24:04.257Z,63.50
2019-03-09T15:26:33.309Z,63.30
2019-03-09T15:29:02.095Z,63.30
2019-03-09T15:31:30.922Z,62.80
2019-03-09T15:33:59.453Z,62.60
2019-03-09T15:36:28.122Z,63.00
2019-03-09T15:38:56.593Z,63.20
2019-03-09T15:41:25.262Z,63.20
2019-03-09T15:43:53.579Z,63.40
2019-03-09T15:46:22.091Z,63.70
2019-03-09T15:48:50.594Z,63.80
2019-03-09T15:51:18.924Z,64.00
2019-03-09T15:53:47.401Z,64.10
2019-03-09T15:56:15.920Z,64.10
2019-03-09T15:58:44.396Z,64.40
2019-03-09T16:01:12.724Z,65.00
2019-03-09T16:03:41.072Z,66.10
2019-03-09T16:06:09.576Z,68.00
2019-03-09T16:08:38.166Z,70.30
2019-03-09T16:11:06.743Z,71.70
2019-03-09T16:13:35.082Z,72.90
2019-03-09T16:16:03.719Z,73.80
2019-03-09T16:18:32.673Z,73.00
2019-03-09T16:21:01.485Z,73.80
2019-03-09T16:23:29.820Z,73.80
2019-03-09T16:25:58.451Z,73.80
2019-03-09T16:28:27.043Z,74.00
2019-03-09T16:30:55.585Z,74.20
2019-03-09T16:33:24.262Z,74.40
2019-03-09T16:35:53.367Z,74.00
2019-03-09T16:38:21.716Z,74.10
2019-03-09T16:40:50.062Z,74.60
2019-03-09T16:43:18.536Z,74.60
2019-03-09T16:45:47.009Z,74.80
2019-03-09T16:48:15.536Z,73.60
2019-03-09T16:50:43.975Z,73.80
2019-03-09T16:53:12.448Z,73.50
2019-03-09T16:55:40.769Z,73.90
2019-03-09T16:58:09.532Z,73.60
2019-03-09T17:00:38.286Z,72.20
2019-03-09T17:03:06.823Z,72.20
2019-03-09T17:05:35.370Z,72.30
2019-03-09T17:08:03.693Z,71.60
2019-03-09T17:10:32.412Z,71.40
2019-03-09T17:13:00.886Z,71.40
2019-03-09T17:15:29.414Z,71.30
2019-03-09T17:17:58.298Z,71.10
2019-03-09T17:20:26.619Z,71.40
2019-03-09T17:22:55.184Z,71.40
2019-03-09T17:25:23.501Z,71.40
2019-03-09T17:27:51.905Z,71.30
2019-03-09T17:30:20.869Z,71.30
2019-03-09T17:32:49.553Z,71.10
2019-03-09T17:35:18.270Z,70.90
2019-03-09T17:37:47.011Z,70.80
2019-03-09T17:40:17.211Z,70.30
2019-03-09T17:42:45.744Z,70.10
2019-03-09T17:45:16.360Z,70.50
2019-03-09T17:47:44.783Z,70.40
2019-03-09T17:50:13.666Z,70.90
2019-03-09T17:52:42.244Z,70.80
2019-03-09T17:55:11.216Z,71.10
2019-03-09T17:57:39.663Z,70.80
2019-03-09T18:00:16.770Z,71.20
2019-03-09T18:02:45.282Z,71.60
2019-03-09T18:05:13.948Z,71.30
2019-03-09T18:07:42.438Z,71.60
2019-03-09T18:10:19.807Z,71.70
2019-03-09T18:12:48.233Z,71.90
2019-03-09T18:15:16.680Z,71.60
2019-03-09T18:17:45.032Z,71.60
2019-03-09T18:20:13.534Z,71.50
2019-03-09T18:22:42.182Z,71.30
2019-03-09T18:25:10.801Z,71.00
2019-03-09T18:27:39.104Z,70.40
2019-03-09T18:30:09.810Z,70.40
2019-03-09T18:32:38.208Z,70.40
2019-03-09T18:35:10.887Z,70.50
2019-03-09T18:37:39.312Z,70.40
2019-03-09T18:40:15.135Z,70.50
2019-03-09T18:42:43.608Z,70.40
2019-03-09T18:45:17.762Z,70.20
2019-03-09T18:47:46.115Z,70.40
2019-03-09T18:50:14.541Z,69.50
2019-03-09T18:52:43.100Z,69.10
2019-03-09T18:55:11.912Z,69.20
2019-03-09T18:57:40.473Z,69.40
2019-03-09T19:00:19.221Z,69.60
2019-03-09T19:02:47.737Z,69.80
2019-03-09T19:05:16.057Z,69.40
2019-03-09T19:07:44.569Z,69.30
2019-03-09T19:10:15.771Z,69.40
2019-03-09T19:12:44.301Z,69.40
2019-03-09T19:15:15.224Z,69.20
2019-03-09T19:17:43.581Z,69.20
2019-03-09T19:20:18.169Z,68.50
2019-03-09T19:22:46.640Z,68.50
2019-03-09T19:25:16.887Z,68.20
2019-03-09T19:27:45.808Z,68.30
2019-03-09T19:30:21.342Z,68.50
2019-03-09T19:32:59.591Z,68.10
2019-03-09T19:35:22.638Z,68.10
2019-03-09T19:37:51.170Z,67.90
2019-03-09T19:40:20.621Z,67.60
2019-03-09T19:42:49.133Z,67.20
2019-03-09T19:45:22.407Z,67.90
2019-03-09T19:47:50.841Z,66.80
2019-03-09T19:50:22.429Z,66.90
2019-03-09T19:52:50.743Z,66.90
2019-03-09T19:55:19.095Z,66.80
2019-03-09T19:57:47.599Z,66.90
2019-03-09T20:00:20.256Z,66.50
2019-03-09T20:02:48.916Z,66.10
2019-03-09T20:05:17.449Z,65.80
2019-03-09T20:07:45.916Z,65.30
2019-03-09T20:10:16.016Z,65.30
2019-03-09T20:12:55.226Z,64.00
2019-03-09T20:15:23.976Z,63.90
2019-03-09T20:17:52.326Z,63.40
2019-03-09T20:20:20.741Z,63.40
2019-03-09T20:26:00.763Z,60.70
2019-03-09T20:28:29.353Z,59.40
2019-03-09T20:30:57.711Z,60.10
2019-03-09T20:33:26.056Z,60.20
2019-03-09T20:35:56.065Z,60.70
2019-03-09T20:38:24.471Z,59.80
2019-03-09T20:41:00.156Z,59.90
2019-03-09T20:43:31.495Z,60.30
2019-03-09T20:46:00.153Z,60.20
2019-03-09T20:48:28.619Z,60.80
2019-03-09T20:50:57.187Z,61.20
2019-03-09T20:53:25.776Z,61.50
2019-03-09T20:55:54.110Z,61.90
2019-03-09T20:58:22.637Z,61.80
2019-03-09T21:00:51.136Z,61.80
2019-03-09T21:03:22.734Z,62.00
2019-03-09T21:05:51.138Z,61.20
2019-03-09T21:08:19.636Z,61.10
2019-03-09T21:10:47.954Z,62.00
2019-03-09T21:13:19.239Z,62.40
2019-03-09T21:15:50.359Z,62.50
2019-03-09T21:18:21.944Z,62.80
2019-03-09T21:20:53.078Z,63.10
2019-03-09T21:23:28.766Z,63.40
2019-03-09T21:25:54.183Z,63.40
2019-03-09T21:28:23.766Z,63.50
2019-03-09T21:30:52.270Z,63.40
2019-03-09T21:33:20.825Z,63.30
2019-03-09T21:35:49.342Z,63.60
2019-03-09T21:38:17.792Z,64.30
2019-03-09T21:40:46.283Z,63.30
2019-03-09T21:43:14.842Z,63.20
2019-03-09T21:45:43.422Z,63.30
2019-03-09T21:48:11.929Z,63.30
2019-03-09T21:50:40.286Z,63.40
2019-03-09T21:53:08.833Z,63.70
2019-03-09T21:55:37.333Z,64.10
2019-03-09T21:58:05.784Z,64.30
2019-03-09T22:00:34.114Z,64.10
2019-03-09T22:03:02.429Z,63.40
2019-03-09T22:05:30.767Z,63.70
2019-03-09T22:07:59.250Z,64.30
2019-03-09T22:10:27.759Z,64.70
2019-03-09T22:12:56.071Z,65.00
2019-03-09T22:15:24.491Z,65.10
2019-03-09T22:17:53.218Z,65.10
2019-03-09T22:20:21.673Z,65.40
2019-03-09T22:22:50.184Z,66.40
2019-03-09T22:25:18.500Z,66.00
2019-03-09T22:27:47.388Z,66.10
2019-03-09T22:30:21.125Z,66.20
2019-03-09T22:32:49.701Z,66.10
2019-03-09T22:35:18.388Z,66.10
2019-03-09T22:37:46.775Z,66.20
2019-03-09T22:40:17.384Z,66.30
2019-03-09T22:42:46.050Z,66.60
2019-03-09T22:45:15.328Z,66.70
2019-03-09T22:47:43.669Z,66.90
2019-03-09T22:50:20.235Z,66.90
2019-03-09T22:52:48.767Z,67.20
2019-03-09T22:55:17.100Z,67.50
2019-03-09T22:57:45.478Z,67.50
2019-03-09T23:00:20.031Z,67.70
2019-03-09T23:02:48.393Z,67.80
2019-03-09T23:05:16.797Z,67.90
2019-03-09T23:07:45.343Z,68.10
2019-03-09T23:10:21.101Z,68.10
2019-03-09T23:12:49.430Z,68.00
2019-03-09T23:15:18.574Z,68.20
2019-03-09T23:17:47.430Z,68.30
2019-03-09T23:20:16.357Z,68.30
2019-03-09T23:22:44.832Z,68.30
2019-03-09T23:25:13.933Z,68.10
2019-03-09T23:27:42.399Z,68.20
2019-03-09T23:30:18.220Z,68.30
2019-03-09T23:32:46.840Z,68.30
2019-03-09T23:35:15.317Z,68.30
2019-03-09T23:37:43.932Z,68.40
2019-03-09T23:40:16.756Z,68.40
2019-03-09T23:42:45.088Z,68.70
2019-03-09T23:45:15.549Z,68.60
2019-03-09T23:47:43.875Z,68.40
2019-03-09T23:50:14.347Z,68.60
2019-03-09T23:52:42.834Z,68.30
2019-03-09T23:55:21.326Z,68.50
2019-03-09T23:57:41.946Z,68.10
